Time;durP1;ratioP1;P1;durP2;ratioP2;P2;SDS_P1;SDS_P2;PMS_P1;PMS_P2;Temp;Humidity;BMP_temperature;BMP_pressure;BME280_temperature;BME280_humidity;BME280_pressure;Samples;Min_cycle;Max_cycle;Signal;HPM_P1;HPM_P2
2021/10/14 00:00:09;;;;;;;5.47;2.67;;;12.40;94.50;;;;;;4919179;29;20032;-67
2021/10/14 00:02:35;;;;;;;5.55;2.95;;;12.40;94.50;;;;;;4935839;29;20034;-68
2021/10/14 00:05:01;;;;;;;5.32;2.90;;;12.40;94.60;;;;;;4919822;29;20384;-67
2021/10/14 00:07:26;;;;;;;5.78;2.90;;;12.50;94.60;;;;;;4917151;29;20507;-67
2021/10/14 00:09:51;;;;;;;6.53;2.70;;;12.40;94.60;;;;;;4917121;29;20032;-67
2021/10/14 00:12:17;;;;;;;9.18;3.85;;;12.40;94.70;;;;;;4900281;29;20024;-68
2021/10/14 00:14:43;;;;;;;7.32;2.97;;;12.40;94.70;;;;;;4916486;29;20131;-67
2021/10/14 00:17:08;;;;;;;9.32;3.28;;;12.40;94.70;;;;;;4916459;29;20051;-67
2021/10/14 00:19:34;;;;;;;7.85;3.05;;;12.40;94.80;;;;;;4917797;29;20043;-68
2021/10/14 00:21:59;;;;;;;6.80;3.45;;;12.40;94.80;;;;;;4916911;29;20024;-67
2021/10/14 00:24:24;;;;;;;9.88;3.20;;;12.50;94.90;;;;;;4926635;29;20591;-67
2021/10/14 00:26:50;;;;;;;4.78;3.00;;;12.40;94.90;;;;;;4935233;29;20035;-67
2021/10/14 00:29:16;;;;;;;5.72;2.92;;;12.40;94.90;;;;;;4933461;29;20158;-67
2021/10/14 00:31:41;;;;;;;4.95;2.78;;;12.40;94.90;;;;;;4927766;29;20055;-67
2021/10/14 00:34:07;;;;;;;4.60;2.65;;;12.40;95.00;;;;;;4916171;29;20040;-68
2021/10/14 00:36:32;;;;;;;5.82;3.10;;;12.40;95.00;;;;;;4915625;29;20032;-68
2021/10/14 00:38:57;;;;;;;5.47;3.00;;;12.40;95.00;;;;;;4905323;29;20031;-68
2021/10/14 00:41:23;;;;;;;6.43;2.83;;;12.40;95.00;;;;;;4934612;29;20123;-68
2021/10/14 00:43:53;;;;;;;6.47;3.53;;;12.40;95.10;;;;;;4932926;29;20470;-67
2021/10/14 00:46:19;;;;;;;5.90;3.20;;;12.40;95.10;;;;;;4934055;29;20531;-69
2021/10/14 00:48:44;;;;;;;7.55;3.05;;;12.40;95.10;;;;;;4928218;29;20024;-68
2021/10/14 00:51:10;;;;;;;3.55;2.50;;;12.40;95.20;;;;;;4916576;29;20036;-68
2021/10/14 00:53:39;;;;;;;5.45;3.20;;;12.40;95.20;;;;;;4932403;29;20377;-68
2021/10/14 00:56:06;;;;;;;7.65;3.17;;;12.40;95.30;;;;;;4917051;29;20035;-67
2021/10/14 00:58:34;;;;;;;5.80;2.92;;;12.40;95.30;;;;;;4932632;29;20036;-69
2021/10/14 01:01:01;;;;;;;6.20;2.85;;;12.50;95.30;;;;;;4920318;29;20043;-68
2021/10/14 01:03:27;;;;;;;6.70;3.25;;;12.40;95.40;;;;;;4917674;29;20031;-69
2021/10/14 01:05:52;;;;;;;5.57;3.10;;;12.40;95.40;;;;;;4934201;29;20541;-68
2021/10/14 01:08:18;;;;;;;6.00;3.30;;;12.40;95.40;;;;;;4932283;29;20030;-68
2021/10/14 01:10:44;;;;;;;8.35;3.70;;;12.50;95.40;;;;;;4933894;29;20066;-69
2021/10/14 01:13:10;;;;;;;8.18;3.35;;;12.50;95.40;;;;;;4930472;29;20046;-68
2021/10/14 01:15:35;;;;;;;7.38;3.33;;;12.50;95.50;;;;;;4915682;29;20039;-68
2021/10/14 01:18:00;;;;;;;5.60;3.58;;;12.50;95.50;;;;;;4914709;29;20385;-68
2021/10/14 01:20:26;;;;;;;5.00;3.22;;;12.40;95.50;;;;;;4933243;29;20036;-69
2021/10/14 01:22:52;;;;;;;7.75;3.22;;;12.50;95.60;;;;;;4934025;29;20023;-67
2021/10/14 01:25:17;;;;;;;5.35;3.28;;;12.50;95.70;;;;;;4932407;29;20460;-67
2021/10/14 01:27:43;;;;;;;8.63;3.15;;;12.40;95.70;;;;;;4931655;29;20034;-67
2021/10/14 01:30:10;;;;;;;4.60;3.00;;;12.40;95.70;;;;;;4916994;29;20036;-68
2021/10/14 01:32:36;;;;;;;8.57;3.50;;;12.40;95.80;;;;;;4882331;29;972822;-68
2021/10/14 01:35:03;;;;;;;9.90;4.00;;;12.40;95.80;;;;;;4915519;29;20099;-68
2021/10/14 01:37:28;;;;;;;10.45;3.70;;;12.40;95.80;;;;;;4915898;29;20074;-67
2021/10/14 01:39:54;;;;;;;7.20;3.33;;;12.40;95.90;;;;;;4925587;29;20047;-67
2021/10/14 01:42:20;;;;;;;7.78;3.60;;;12.40;95.90;;;;;;4915622;29;20028;-67
2021/10/14 01:44:45;;;;;;;6.97;3.90;;;12.40;95.90;;;;;;4915336;29;20039;-67
2021/10/14 01:47:11;;;;;;;5.68;3.53;;;12.50;95.90;;;;;;4930439;29;20024;-67
2021/10/14 01:49:36;;;;;;;8.90;3.50;;;12.40;96.00;;;;;;4934112;29;20040;-68
2021/10/14 01:52:02;;;;;;;4.53;3.28;;;12.40;96.00;;;;;;4919180;29;20138;-67
2021/10/14 01:54:27;;;;;;;7.47;3.80;;;12.40;96.00;;;;;;4915102;29;20048;-67
2021/10/14 01:56:53;;;;;;;5.53;3.33;;;12.40;96.10;;;;;;4915569;29;20020;-67
2021/10/14 01:59:18;;;;;;;7.03;3.67;;;12.40;96.10;;;;;;4915380;29;20040;-67
2021/10/14 02:01:44;;;;;;;7.20;3.17;;;12.40;96.10;;;;;;4915761;29;20024;-67
2021/10/14 02:04:09;;;;;;;6.82;3.83;;;12.40;96.10;;;;;;4914833;29;20040;-67
2021/10/14 02:06:35;;;;;;;6.18;3.35;;;12.40;96.10;;;;;;4906022;29;20060;-68
2021/10/14 02:09:00;;;;;;;11.27;3.92;;;12.50;96.10;;;;;;4915526;29;20032;-68
2021/10/14 02:11:26;;;;;;;5.72;3.35;;;12.50;96.20;;;;;;4923753;29;20054;-68
2021/10/14 02:13:51;;;;;;;7.85;3.85;;;12.50;96.20;;;;;;4934135;29;20175;-69
2021/10/14 02:16:17;;;;;;;5.10;3.58;;;12.50;96.20;;;;;;4932430;29;20032;-68
2021/10/14 02:18:43;;;;;;;6.78;4.13;;;12.50;96.20;;;;;;4934232;29;20596;-69
2021/10/14 02:21:09;;;;;;;6.32;3.58;;;12.40;96.20;;;;;;4925788;29;20027;-69
2021/10/14 02:23:34;;;;;;;6.43;3.63;;;12.50;96.30;;;;;;4915140;29;20028;-69
2021/10/14 02:25:59;;;;;;;10.30;4.15;;;12.50;96.30;;;;;;4920622;29;20111;-68
2021/10/14 02:28:25;;;;;;;7.72;4.85;;;12.50;96.40;;;;;;4934025;29;20046;-69
2021/10/14 02:30:51;;;;;;;6.68;4.10;;;12.50;96.40;;;;;;4927558;29;20036;-68
2021/10/14 02:33:16;;;;;;;5.40;4.30;;;12.50;96.40;;;;;;4915163;29;20087;-69
2021/10/14 02:35:42;;;;;;;6.05;4.25;;;12.50;96.40;;;;;;4914875;29;20051;-68
2021/10/14 02:38:07;;;;;;;8.77;4.90;;;12.50;96.50;;;;;;4915071;29;20063;-68
2021/10/14 02:40:33;;;;;;;7.05;4.10;;;12.50;96.50;;;;;;4917228;29;20091;-69
2021/10/14 02:42:58;;;;;;;9.43;4.50;;;12.50;96.40;;;;;;4933800;29;20038;-69
2021/10/14 02:45:24;;;;;;;5.07;4.13;;;12.50;96.50;;;;;;4914760;29;20039;-68
2021/10/14 02:47:49;;;;;;;8.50;4.38;;;12.50;96.50;;;;;;4934020;29;20028;-68
2021/10/14 02:50:15;;;;;;;8.50;4.85;;;12.50;96.50;;;;;;4932380;29;20106;-68
2021/10/14 02:52:40;;;;;;;7.85;4.50;;;12.50;96.70;;;;;;4920782;29;20080;-69
2021/10/14 02:55:06;;;;;;;6.85;4.60;;;12.40;96.50;;;;;;4917185;29;20032;-69
2021/10/14 02:57:32;;;;;;;7.07;4.65;;;12.50;96.60;;;;;;4918231;29;20388;-69
2021/10/14 02:59:57;;;;;;;7.13;4.45;;;12.40;96.50;;;;;;4918043;29;20032;-68
2021/10/14 03:02:23;;;;;;;9.55;4.90;;;12.50;96.60;;;;;;4901730;29;20036;-68
2021/10/14 03:04:48;;;;;;;7.70;4.30;;;12.50;96.60;;;;;;4918179;29;20036;-69
2021/10/14 03:07:14;;;;;;;7.68;3.78;;;12.50;96.50;;;;;;4933304;29;20477;-69
2021/10/14 03:09:39;;;;;;;6.65;3.50;;;12.50;96.50;;;;;;4920088;29;20159;-69
2021/10/14 03:12:05;;;;;;;5.03;3.42;;;12.50;96.40;;;;;;4920822;29;20496;-68
2021/10/14 03:14:30;;;;;;;7.15;3.45;;;12.50;96.40;;;;;;4917634;29;20051;-69
2021/10/14 03:16:56;;;;;;;7.32;3.63;;;12.50;96.40;;;;;;4930994;29;20034;-69
2021/10/14 03:19:21;;;;;;;7.25;3.00;;;12.50;96.40;;;;;;4937151;29;20028;-69
2021/10/14 03:21:47;;;;;;;4.60;2.97;;;12.50;96.30;;;;;;4923111;29;20056;-69
2021/10/14 03:24:12;;;;;;;4.70;2.78;;;12.50;96.30;;;;;;4917688;29;20361;-69
2021/10/14 03:26:38;;;;;;;5.63;2.83;;;12.50;96.30;;;;;;4917646;29;20028;-69
2021/10/14 03:29:03;;;;;;;5.00;2.85;;;12.40;96.20;;;;;;4917993;29;20140;-69
2021/10/14 03:31:29;;;;;;;7.20;3.42;;;12.50;96.30;;;;;;4917926;29;20048;-68
2021/10/14 03:33:56;;;;;;;5.75;3.10;;;12.50;96.40;;;;;;4917499;29;20467;-68
2021/10/14 03:36:22;;;;;;;5.28;3.17;;;12.40;96.40;;;;;;4917597;29;20039;-68
2021/10/14 03:38:47;;;;;;;7.05;3.25;;;12.40;96.50;;;;;;4917412;29;20859;-68
2021/10/14 03:41:13;;;;;;;6.13;3.15;;;12.40;96.60;;;;;;4907859;29;20026;-68
2021/10/14 03:43:38;;;;;;;4.70;3.00;;;12.40;96.70;;;;;;4919255;29;20020;-67
2021/10/14 03:46:03;;;;;;;4.45;2.90;;;12.30;96.80;;;;;;4934932;29;20486;-67
2021/10/14 03:48:29;;;;;;;5.88;3.08;;;12.30;96.90;;;;;;4936405;29;20476;-68
2021/10/14 03:50:54;;;;;;;5.63;3.47;;;12.30;97.00;;;;;;4930382;29;20063;-68
2021/10/14 03:53:20;;;;;;;7.68;3.65;;;12.30;97.10;;;;;;4917457;29;20035;-68
2021/10/14 03:55:45;;;;;;;6.38;3.67;;;12.30;97.20;;;;;;4920356;29;20072;-68
2021/10/14 03:58:11;;;;;;;7.85;3.55;;;12.30;97.20;;;;;;4936176;29;20042;-68
2021/10/14 04:00:36;;;;;;;9.57;3.72;;;12.30;97.30;;;;;;4925099;29;20024;-68
2021/10/14 04:03:02;;;;;;;6.40;3.90;;;12.30;97.30;;;;;;4917068;29;20099;-68
2021/10/14 04:05:27;;;;;;;7.75;3.47;;;12.30;97.40;;;;;;4916171;29;20070;-68
2021/10/14 04:07:53;;;;;;;6.40;3.50;;;12.20;97.50;;;;;;4917116;29;20056;-68
2021/10/14 04:10:19;;;;;;;7.45;3.70;;;12.20;97.50;;;;;;4935153;29;20114;-69
2021/10/14 04:12:44;;;;;;;6.20;4.07;;;12.30;97.60;;;;;;4935840;29;20372;-69
2021/10/14 04:15:10;;;;;;;8.35;4.10;;;12.20;97.60;;;;;;4934585;29;20031;-69
2021/10/14 04:17:35;;;;;;;7.05;3.97;;;12.20;97.70;;;;;;4917115;29;20056;-69
2021/10/14 04:20:02;;;;;;;5.40;4.05;;;12.20;97.70;;;;;;4916672;29;20034;-69
2021/10/14 04:22:28;;;;;;;8.85;4.32;;;12.20;97.80;;;;;;4933528;29;20090;-69
2021/10/14 04:24:53;;;;;;;6.25;3.97;;;12.20;97.80;;;;;;4934907;29;20830;-69
2021/10/14 04:27:19;;;;;;;7.10;3.90;;;12.20;97.90;;;;;;4933907;29;20032;-69
2021/10/14 04:29:45;;;;;;;4.57;3.58;;;12.30;98.00;;;;;;4919804;29;20373;-69
2021/10/14 04:32:11;;;;;;;5.57;4.00;;;12.20;98.00;;;;;;4913788;29;20191;-69
2021/10/14 04:34:37;;;;;;;6.38;4.07;;;12.20;98.10;;;;;;4916407;29;20040;-70
2021/10/14 04:37:07;;;;;;;5.25;3.47;;;12.20;98.10;;;;;;4930224;29;20024;-70
2021/10/14 04:39:37;;;;;;;5.07;3.53;;;12.20;98.20;;;;;;4934929;29;20035;-70
2021/10/14 04:42:06;;;;;;;5.95;3.58;;;12.20;98.20;;;;;;4933702;29;20388;-70
2021/10/14 04:44:33;;;;;;;5.18;3.80;;;12.20;98.30;;;;;;4917753;29;20096;-70
2021/10/14 04:47:02;;;;;;;7.50;3.70;;;12.20;98.30;;;;;;4929227;29;20034;-71
2021/10/14 04:49:28;;;;;;;7.63;3.47;;;12.20;98.40;;;;;;4935510;29;20115;-70
2021/10/14 04:51:53;;;;;;;6.30;3.60;;;12.20;98.40;;;;;;4917145;29;20115;-70
2021/10/14 04:54:19;;;;;;;4.82;3.40;;;12.20;98.50;;;;;;4935081;29;20042;-71
2021/10/14 04:56:44;;;;;;;6.47;3.75;;;12.20;98.50;;;;;;4933417;29;20027;-69
2021/10/14 04:59:10;;;;;;;5.00;3.72;;;12.10;98.60;;;;;;4927565;29;20031;-69
2021/10/14 05:01:35;;;;;;;5.75;3.55;;;12.10;98.60;;;;;;4925948;29;20432;-69
2021/10/14 05:04:01;;;;;;;5.15;3.50;;;12.20;98.70;;;;;;4935016;29;20023;-69
2021/10/14 05:06:26;;;;;;;5.78;3.63;;;12.20;98.70;;;;;;4933012;29;20055;-69
2021/10/14 05:08:52;;;;;;;4.60;3.33;;;12.20;98.70;;;;;;4934890;29;20039;-69
2021/10/14 05:11:17;;;;;;;5.63;3.38;;;12.20;98.80;;;;;;4925455;29;20038;-70
2021/10/14 05:13:43;;;;;;;6.25;3.42;;;12.20;98.80;;;;;;4915434;29;20542;-70
2021/10/14 05:16:08;;;;;;;5.05;3.47;;;12.20;98.80;;;;;;4915709;29;20068;-69
2021/10/14 05:18:34;;;;;;;4.82;3.50;;;12.20;98.80;;;;;;4915851;29;20445;-69
2021/10/14 05:20:59;;;;;;;7.65;3.45;;;12.20;98.90;;;;;;4921089;29;20571;-70
2021/10/14 05:23:25;;;;;;;5.53;3.38;;;12.20;98.90;;;;;;4934180;29;20032;-68
2021/10/14 05:25:51;;;;;;;4.50;3.45;;;12.20;98.90;;;;;;4928472;29;20024;-69
2021/10/14 05:28:16;;;;;;;4.55;2.97;;;12.20;99.00;;;;;;4917939;29;20024;-69
2021/10/14 05:30:42;;;;;;;4.68;3.28;;;12.20;99.00;;;;;;4915229;29;20075;-69
2021/10/14 05:33:07;;;;;;;5.00;3.08;;;12.20;99.00;;;;;;4915723;29;20031;-69
2021/10/14 05:35:33;;;;;;;5.20;3.25;;;12.20;99.00;;;;;;4915540;29;20040;-70
2021/10/14 05:37:59;;;;;;;5.80;3.80;;;12.20;99.10;;;;;;4915222;29;20043;-69
2021/10/14 05:40:24;;;;;;;3.78;2.90;;;12.30;99.10;;;;;;4915913;29;20046;-69
2021/10/14 05:42:50;;;;;;;5.00;3.30;;;12.20;99.10;;;;;;4915483;29;20024;-69
2021/10/14 05:45:15;;;;;;;4.82;3.10;;;12.30;99.20;;;;;;4915230;29;20031;-69
2021/10/14 05:47:41;;;;;;;4.43;3.33;;;12.30;99.20;;;;;;4934023;29;20127;-70
2021/10/14 05:50:07;;;;;;;4.07;2.97;;;12.30;99.30;;;;;;4933791;29;20384;-69
2021/10/14 05:52:32;;;;;;;4.68;3.40;;;12.30;99.30;;;;;;4932715;29;20059;-69
2021/10/14 05:54:59;;;;;;;5.18;2.90;;;12.30;99.40;;;;;;4934293;29;20051;-69
2021/10/14 05:57:25;;;;;;;5.07;2.90;;;12.30;99.40;;;;;;4915098;29;20504;-69
2021/10/14 05:59:50;;;;;;;4.35;3.38;;;12.40;99.40;;;;;;4915448;29;20111;-70
2021/10/14 06:02:16;;;;;;;4.78;3.28;;;12.30;99.40;;;;;;4930553;29;20119;-69
2021/10/14 06:04:42;;;;;;;3.70;2.80;;;12.30;99.40;;;;;;4934108;29;20063;-70
2021/10/14 06:07:07;;;;;;;5.57;3.15;;;12.40;99.40;;;;;;4918261;29;20032;-69
2021/10/14 06:09:33;;;;;;;3.85;2.95;;;12.40;99.40;;;;;;4915449;29;20027;-69
2021/10/14 06:11:58;;;;;;;4.97;3.03;;;12.40;99.40;;;;;;4928481;29;20028;-69
2021/10/14 06:14:24;;;;;;;5.50;2.92;;;12.40;99.40;;;;;;4932168;29;20028;-70
2021/10/14 06:16:49;;;;;;;4.57;2.60;;;12.50;99.40;;;;;;4914822;29;20412;-69
2021/10/14 06:19:15;;;;;;;3.70;2.80;;;12.50;99.40;;;;;;4915692;29;20115;-69
2021/10/14 06:21:40;;;;;;;3.60;2.60;;;12.50;99.40;;;;;;4914911;29;20043;-69
2021/10/14 06:24:06;;;;;;;3.78;2.78;;;12.50;99.40;;;;;;4914939;29;20028;-69
2021/10/14 06:26:31;;;;;;;4.32;2.97;;;12.60;99.40;;;;;;4914618;29;20167;-69
2021/10/14 06:28:57;;;;;;;4.55;3.80;;;12.50;99.40;;;;;;4916606;29;20036;-69
2021/10/14 06:31:22;;;;;;;3.30;2.47;;;12.60;99.50;;;;;;4918792;29;20044;-68
2021/10/14 06:33:48;;;;;;;4.00;2.83;;;12.60;99.50;;;;;;4918317;29;20032;-69
2021/10/14 06:36:13;;;;;;;3.72;2.60;;;12.60;99.50;;;;;;4925313;29;20059;-69
2021/10/14 06:38:39;;;;;;;4.00;3.08;;;12.60;99.50;;;;;;4937705;29;20058;-69
2021/10/14 06:41:04;;;;;;;3.55;2.58;;;12.60;99.50;;;;;;4935811;29;20055;-69
2021/10/14 06:43:30;;;;;;;3.70;2.55;;;12.70;99.50;;;;;;4937435;29;20019;-69
2021/10/14 06:45:55;;;;;;;5.43;3.25;;;12.70;99.60;;;;;;4930573;29;20111;-69
2021/10/14 06:48:21;;;;;;;4.47;2.80;;;12.70;99.60;;;;;;4918440;29;20356;-69
2021/10/14 06:50:46;;;;;;;4.88;3.13;;;12.80;99.60;;;;;;4917768;29;20032;-69
2021/10/14 06:53:13;;;;;;;4.43;3.25;;;12.80;99.60;;;;;;4909020;29;20031;-69
2021/10/14 06:55:40;;;;;;;5.20;3.08;;;12.80;99.60;;;;;;4935374;29;20051;-69
2021/10/14 06:58:05;;;;;;;4.32;3.10;;;12.80;99.60;;;;;;4937104;29;20399;-69
2021/10/14 07:00:31;;;;;;;4.97;3.08;;;12.80;99.70;;;;;;4933807;29;20108;-69
2021/10/14 07:02:56;;;;;;;5.60;2.67;;;12.90;99.70;;;;;;4918226;29;20083;-69
2021/10/14 07:05:22;;;;;;;3.75;2.92;;;12.90;99.90;;;;;;4917855;29;20028;-69
2021/10/14 07:07:47;;;;;;;4.47;3.45;;;13.00;99.70;;;;;;4918078;29;20036;-69
2021/10/14 07:10:13;;;;;;;3.40;2.67;;;13.00;99.70;;;;;;4917679;29;20088;-69
2021/10/14 07:12:40;;;;;;;4.00;2.90;;;13.00;99.70;;;;;;4917950;29;20028;-69
2021/10/14 07:15:08;;;;;;;4.93;3.05;;;13.00;99.70;;;;;;4917306;29;20032;-69
2021/10/14 07:17:36;;;;;;;5.15;3.13;;;13.10;99.70;;;;;;4935762;29;20472;-69
2021/10/14 07:20:04;;;;;;;4.38;3.10;;;13.10;99.70;;;;;;4923891;29;20123;-70
2021/10/14 07:22:30;;;;;;;4.15;3.00;;;13.10;99.70;;;;;;4918611;29;20028;-70
2021/10/14 07:24:55;;;;;;;4.38;3.10;;;13.10;99.70;;;;;;4917744;29;20024;-70
2021/10/14 07:27:21;;;;;;;5.43;3.70;;;13.20;99.70;;;;;;4917773;29;20032;-70
2021/10/14 07:29:46;;;;;;;5.47;3.58;;;13.20;99.70;;;;;;4936589;29;20024;-70
2021/10/14 07:32:13;;;;;;;5.22;3.78;;;13.20;99.70;;;;;;4919410;29;20048;-69
2021/10/14 07:34:39;;;;;;;4.50;3.47;;;13.20;99.60;;;;;;4917035;29;20028;-69
2021/10/14 07:37:06;;;;;;;5.93;3.58;;;13.20;99.60;;;;;;4917545;29;20361;-69
2021/10/14 07:39:32;;;;;;;5.78;4.38;;;13.20;99.70;;;;;;4917116;29;20066;-70
2021/10/14 07:41:58;;;;;;;6.13;4.13;;;13.30;99.70;;;;;;4930358;29;20028;-70
2021/10/14 07:44:23;;;;;;;5.03;4.05;;;13.30;99.70;;;;;;4936179;29;20035;-69
2021/10/14 07:46:49;;;;;;;6.75;4.43;;;13.30;99.70;;;;;;4933694;29;20032;-70
2021/10/14 07:49:16;;;;;;;6.47;4.82;;;13.40;99.70;;;;;;4899949;29;20035;-68
2021/10/14 07:51:42;;;;;;;7.57;4.60;;;13.40;99.60;;;;;;4927875;29;20070;-68
2021/10/14 07:54:07;;;;;;;7.15;5.18;;;13.40;99.60;;;;;;4936180;29;20043;-69
2021/10/14 07:56:33;;;;;;;6.68;4.63;;;13.50;99.60;;;;;;4924724;29;20028;-69
2021/10/14 07:58:59;;;;;;;7.25;5.13;;;13.60;99.70;;;;;;4916988;29;20527;-69
2021/10/14 08:01:25;;;;;;;6.50;5.07;;;13.60;99.70;;;;;;4917160;29;20032;-69
2021/10/14 08:03:51;;;;;;;7.85;5.10;;;13.70;99.70;;;;;;4916665;29;20031;-69
2021/10/14 08:06:16;;;;;;;7.38;5.07;;;13.70;99.70;;;;;;4917415;29;20036;-69
2021/10/14 08:08:42;;;;;;;7.05;5.00;;;13.80;99.70;;;;;;4917026;29;20380;-69
2021/10/14 08:11:08;;;;;;;7.97;5.25;;;13.80;99.60;;;;;;4916771;29;20029;-69
2021/10/14 08:13:34;;;;;;;9.00;5.50;;;13.80;99.50;;;;;;4916563;29;20048;-68
2021/10/14 08:16:00;;;;;;;8.23;4.82;;;13.90;99.50;;;;;;4916440;29;20050;-69
2021/10/14 08:18:26;;;;;;;7.43;5.35;;;13.90;99.40;;;;;;4916858;29;20055;-69
2021/10/14 08:20:53;;;;;;;9.23;4.80;;;13.90;99.30;;;;;;4916926;29;20084;-69
2021/10/14 08:23:26;;;;;;;9.50;5.80;;;13.90;99.30;;;;;;4916886;29;20024;-69
2021/10/14 08:25:53;;;;;;;7.97;5.78;;;13.90;99.20;;;;;;4916637;29;20111;-69
2021/10/14 08:28:19;;;;;;;9.15;5.40;;;13.90;99.10;;;;;;4916672;29;20032;-69
2021/10/14 08:30:47;;;;;;;8.05;5.63;;;13.90;99.20;;;;;;4919936;29;20024;-68
2021/10/14 08:33:13;;;;;;;9.90;5.68;;;13.90;99.20;;;;;;4916785;29;20037;-69
2021/10/14 08:35:39;;;;;;;8.57;5.85;;;13.90;99.20;;;;;;4919068;29;20480;-68
2021/10/14 08:38:05;;;;;;;9.00;6.30;;;14.00;99.20;;;;;;4935924;29;20039;-69
2021/10/14 08:40:32;;;;;;;10.25;6.40;;;14.00;99.20;;;;;;4932532;29;20577;-68
2021/10/14 08:43:05;;;;;;;8.88;6.18;;;14.10;99.20;;;;;;4916612;29;20017;-69
2021/10/14 08:45:35;;;;;;;8.13;5.75;;;14.10;99.20;;;;;;4920110;29;20344;-69
2021/10/14 08:48:05;;;;;;;7.65;5.57;;;14.10;99.20;;;;;;4935555;29;20028;-69
2021/10/14 08:50:36;;;;;;;10.88;6.22;;;14.10;99.20;;;;;;4930750;29;20032;-68
2021/10/14 08:53:01;;;;;;;8.70;6.35;;;14.10;99.30;;;;;;4934986;29;20035;-68
2021/10/14 08:55:27;;;;;;;8.50;5.70;;;14.10;99.30;;;;;;4933217;29;20032;-69
2021/10/14 08:57:55;;;;;;;9.75;6.10;;;14.10;99.30;;;;;;4934654;29;20034;-68
2021/10/14 09:00:21;;;;;;;9.25;5.78;;;14.20;99.30;;;;;;4916630;29;20019;-68
2021/10/14 09:02:46;;;;;;;10.23;6.22;;;14.20;99.20;;;;;;4934952;29;20110;-69
2021/10/14 09:05:14;;;;;;;9.25;5.70;;;14.20;99.20;;;;;;4933919;29;20111;-68
2021/10/14 09:07:40;;;;;;;7.18;5.60;;;14.20;99.10;;;;;;4934491;29;20027;-69
2021/10/14 09:10:12;;;;;;;10.15;6.55;;;14.30;99.20;;;;;;4934422;29;20068;-68
2021/10/14 09:12:43;;;;;;;9.32;6.43;;;14.30;99.20;;;;;;4915595;29;20043;-68
2021/10/14 09:15:10;;;;;;;10.75;7.20;;;14.30;99.20;;;;;;4915186;29;20038;-69
2021/10/14 09:17:43;;;;;;;9.10;6.53;;;14.40;99.30;;;;;;4916091;29;20028;-68
2021/10/14 09:20:21;;;;;;;8.48;6.70;;;14.40;99.30;;;;;;4915342;29;20039;-69
2021/10/14 09:22:55;;;;;;;9.48;6.63;;;14.40;99.20;;;;;;4915521;29;20079;-69
2021/10/14 09:25:53;;;;;;;11.13;7.15;;;14.40;99.20;;;;;;4916167;29;20040;-69
2021/10/14 09:28:26;;;;;;;10.65;6.63;;;14.50;99.20;;;;;;4892467;29;20086;-68
2021/10/14 09:31:04;;;;;;;9.45;6.47;;;14.50;99.10;;;;;;4932373;29;20495;-68
2021/10/14 09:33:34;;;;;;;9.73;6.72;;;14.50;99.10;;;;;;4934485;29;20043;-68
2021/10/14 09:36:20;;;;;;;9.43;6.55;;;14.50;99.10;;;;;;4932820;29;20043;-68
2021/10/14 09:38:49;;;;;;;;;;;14.60;99.10;;;;;;4934227;29;20090;-69
2021/10/14 09:41:18;;;;;;;8.02;5.70;;;14.60;98.90;;;;;;4899401;29;19958;-69
2021/10/14 09:43:46;;;;;;;16.73;6.82;;;14.50;99.00;;;;;;4914813;29;20032;-68
2021/10/14 09:46:35;;;;;;;8.23;6.22;;;14.60;99.10;;;;;;4915891;29;20032;-69
2021/10/14 09:49:02;;;;;;;8.75;6.18;;;14.60;99.10;;;;;;4915753;29;20378;-69
2021/10/14 09:51:29;;;;;;;9.82;6.18;;;14.60;99.20;;;;;;4916196;29;20043;-69
2021/10/14 09:53:54;;;;;;;8.43;6.00;;;14.60;99.20;;;;;;4915259;29;20039;-69
2021/10/14 09:56:20;;;;;;;8.32;6.47;;;14.70;99.30;;;;;;4923403;29;20032;-70
2021/10/14 09:58:46;;;;;;;8.63;6.00;;;14.60;99.30;;;;;;4933602;29;20044;-69
2021/10/14 10:01:12;;;;;;;8.30;5.88;;;14.70;99.30;;;;;;4925680;29;20535;-70
2021/10/14 10:03:39;;;;;;;7.30;5.47;;;14.70;99.30;;;;;;4899568;29;20020;-69
2021/10/14 10:06:07;;;;;;;7.03;5.45;;;14.70;99.40;;;;;;4926110;29;20115;-69
2021/10/14 10:08:37;;;;;;;8.70;5.55;;;14.80;99.40;;;;;;4941851;29;20039;-69
2021/10/14 10:11:06;;;;;;;7.25;5.10;;;14.80;99.40;;;;;;4934049;29;20039;-69
2021/10/14 10:13:33;;;;;;;7.93;5.20;;;14.80;99.40;;;;;;4923838;29;20111;-69
2021/10/14 10:16:14;;;;;;;7.95;5.45;;;14.90;99.50;;;;;;4934610;29;20075;-69
2021/10/14 10:18:41;;;;;;;7.65;5.00;;;14.90;99.50;;;;;;4923057;29;20039;-69
2021/10/14 10:21:09;;;;;;;6.53;4.78;;;14.90;99.60;;;;;;4922715;29;20054;-70
2021/10/14 10:23:47;;;;;;;6.40;4.53;;;15.00;99.60;;;;;;4923211;29;20465;-70
2021/10/14 10:26:35;;;;;;;6.03;3.97;;;15.00;99.50;;;;;;4927337;29;20036;-69
2021/10/14 10:29:12;;;;;;;4.88;3.22;;;15.10;99.50;;;;;;4938943;29;20087;-69
2021/10/14 10:31:51;;;;;;;5.35;3.72;;;15.10;99.50;;;;;;4925146;29;20055;-70
2021/10/14 10:40:05;;;;;;;6.10;4.00;;;15.20;99.50;;;;;;4918223;29;20460;-69
2021/10/14 10:42:42;;;;;;;4.85;3.13;;;15.30;99.50;;;;;;4919396;29;20115;-69
2021/10/14 10:45:15;;;;;;;5.38;3.70;;;15.30;99.40;;;;;;4920583;29;20396;-69
2021/10/14 10:47:46;;;;;;;5.43;2.90;;;15.30;99.40;;;;;;4917924;29;20036;-70
2021/10/14 10:50:15;;;;;;;4.15;3.03;;;15.30;99.40;;;;;;4917698;29;20429;-69
2021/10/14 10:52:43;;;;;;;3.95;2.80;;;15.40;99.40;;;;;;4936825;29;20567;-69
2021/10/14 10:55:35;;;;;;;4.50;2.70;;;15.40;99.40;;;;;;4936579;29;20538;-70
2021/10/14 10:58:01;;;;;;;3.95;2.40;;;15.50;99.30;;;;;;4919268;29;20437;-70
2021/10/14 11:00:27;;;;;;;4.40;2.60;;;15.50;99.30;;;;;;4921269;29;20040;-69
2021/10/14 11:03:07;;;;;;;3.83;2.72;;;15.50;99.30;;;;;;4938114;29;20086;-70
2021/10/14 11:05:58;;;;;;;4.18;2.65;;;15.50;99.30;;;;;;4933700;29;20539;-70
2021/10/14 11:08:25;;;;;;;3.55;2.30;;;15.50;99.30;;;;;;4901742;29;20043;-69
2021/10/14 11:10:54;;;;;;;2.67;1.98;;;15.50;99.30;;;;;;4917940;29;20063;-70
2021/10/14 11:13:22;;;;;;;4.38;2.42;;;15.50;99.30;;;;;;4930009;29;20522;-70
2021/10/14 11:15:51;;;;;;;2.83;2.20;;;15.50;99.30;;;;;;4931905;29;20560;-69
2021/10/14 11:18:18;;;;;;;2.90;2.10;;;15.50;99.30;;;;;;4918793;29;20092;-69
2021/10/14 11:20:53;;;;;;;2.85;1.85;;;15.50;99.30;;;;;;4921553;29;20024;-69
2021/10/14 11:23:21;;;;;;;3.10;1.88;;;15.50;99.50;;;;;;4937579;29;20035;-70
2021/10/14 11:26:09;;;;;;;2.92;1.88;;;15.50;99.30;;;;;;4930377;29;20107;-70
2021/10/14 11:28:51;;;;;;;3.05;2.05;;;15.50;99.30;;;;;;4917895;29;20028;-69
2021/10/14 11:31:32;;;;;;;2.33;1.80;;;15.50;99.30;;;;;;4917568;29;20532;-69
2021/10/14 11:34:18;;;;;;;5.30;2.15;;;15.50;99.20;;;;;;4917598;29;20061;-69
2021/10/14 11:37:02;;;;;;;4.10;1.80;;;15.50;99.20;;;;;;4917962;29;20601;-69
2021/10/14 11:39:35;;;;;;;3.72;2.30;;;15.50;99.20;;;;;;4917672;29;20039;-69
2021/10/14 11:42:10;;;;;;;3.20;1.88;;;15.50;99.20;;;;;;4929940;29;20044;-69
2021/10/14 11:44:44;;;;;;;5.95;2.28;;;15.50;99.30;;;;;;4917948;29;20040;-69
2021/10/14 11:47:14;;;;;;;5.00;2.42;;;15.50;99.30;;;;;;4932228;29;20039;-69
2021/10/14 11:49:40;;;;;;;3.38;2.47;;;15.50;99.30;;;;;;4936363;29;20063;-69
2021/10/14 11:52:07;;;;;;;3.30;2.40;;;15.50;99.40;;;;;;4934687;29;20046;-69
2021/10/14 11:54:35;;;;;;;6.22;2.75;;;15.50;99.40;;;;;;4936406;29;20122;-69
2021/10/14 11:57:02;;;;;;;3.88;2.80;;;15.50;99.40;;;;;;4934761;29;20028;-69
2021/10/14 11:59:29;;;;;;;5.75;3.55;;;15.60;99.40;;;;;;4935947;29;20027;-69
2021/10/14 12:02:27;;;;;;;5.25;3.60;;;15.60;99.40;;;;;;4934180;29;20028;-69
2021/10/14 12:04:53;;;;;;;5.18;3.60;;;15.60;99.40;;;;;;4919700;29;20035;-70
2021/10/14 12:07:27;;;;;;;4.97;3.70;;;15.50;99.40;;;;;;4918333;29;20119;-69
2021/10/14 12:09:54;;;;;;;8.45;4.30;;;15.50;99.40;;;;;;4916977;29;20024;-69
2021/10/14 12:12:22;;;;;;;7.43;4.60;;;15.50;99.40;;;;;;4932606;29;20035;-69
2021/10/14 12:15:02;;;;;;;6.82;4.70;;;15.50;99.50;;;;;;4916358;29;20044;-69
2021/10/14 12:17:45;;;;;;;5.40;4.25;;;15.50;99.50;;;;;;4916523;29;20043;-70
2021/10/14 12:20:20;;;;;;;8.10;4.40;;;15.50;99.50;;;;;;4916608;29;20036;-71
2021/10/14 12:22:49;;;;;;;5.63;4.10;;;15.50;99.50;;;;;;4916287;29;20028;-69
2021/10/14 12:25:22;;;;;;;8.07;4.38;;;15.40;99.50;;;;;;4916446;29;20028;-69
2021/10/14 12:27:55;;;;;;;6.82;4.60;;;15.40;99.60;;;;;;4916227;29;20024;-69
2021/10/14 12:30:28;;;;;;;5.38;4.13;;;15.40;99.80;;;;;;4918955;29;20028;-69
2021/10/14 12:33:09;;;;;;;6.43;5.05;;;15.40;99.60;;;;;;4916344;29;20058;-69
2021/10/14 12:35:35;;;;;;;8.30;5.78;;;15.40;99.60;;;;;;4916706;29;20039;-69
2021/10/14 12:38:06;;;;;;;7.05;5.47;;;15.40;99.70;;;;;;4916822;29;20083;-70
2021/10/14 12:40:33;;;;;;;8.27;5.30;;;15.40;99.70;;;;;;4916780;29;20107;-70
2021/10/14 12:43:04;;;;;;;9.55;5.93;;;15.50;99.80;;;;;;4933778;29;20032;-69
2021/10/14 12:45:57;;;;;;;8.38;5.32;;;15.50;99.90;;;;;;4932420;29;20028;-69
2021/10/14 12:53:56;;;;;;;9.02;6.25;;;15.70;99.90;;;;;;4935399;29;20122;-69
2021/10/14 12:56:37;;;;;;;11.98;6.50;;;15.80;99.80;;;;;;4933921;29;20028;-69
2021/10/14 12:59:05;;;;;;;11.05;6.78;;;15.80;99.70;;;;;;4935440;29;20480;-69